Aviation Digital Data Service (ADDS)

Output produced by METARs form (1509 UTC 19 January 2019)
found at http://www.aviationweather.gov/metar/data/
 
METAR text: UTTT 191430Z 33008KT 290V350 9999 BKN030 07/03 Q1015 R08R/CLRD70 NOSIG
Conditions at: UTTT (TASKENT/YUZNI , UZ) observed 1430 UTC 19 January 2019
Temperature: 7.0°C (45°F)
Dewpoint: 3.0°C (37°F) [RH = 76%]
Pressure (altimeter): 29.97 inches Hg (1015.0 mb)
Winds: from the NNW (330 degrees) at 9 MPH (8 knots; 4.1 m/s)
Visibility: 6 or more miles (10+ km)
Ceiling: 3000 feet AGL
Clouds: broken clouds at 3000 feet AGL
Weather: no significant weather observed at this time

METAR text: UTTT 191400Z 28010KT 9999 BKN030 07/03 Q1015 R26R/CLRD70 NOSIG
Conditions at: UTTT (TASKENT/YUZNI , UZ) observed 1400 UTC 19 January 2019
Temperature: 7.0°C (45°F)
Dewpoint: 3.0°C (37°F) [RH = 76%]
Pressure (altimeter): 29.97 inches Hg (1015.0 mb)
Winds: from the W (280 degrees) at 12 MPH (10 knots; 5.1 m/s)
Visibility: 6 or more miles (10+ km)
Ceiling: 3000 feet AGL
Clouds: broken clouds at 3000 feet AGL
Weather: no significant weather observed at this time

METAR text: UTTT 191330Z 28006KT 9999 SCT031 08/04 Q1015 R26R/CLRD70 NOSIG
Conditions at: UTTT (TASKENT/YUZNI , UZ) observed 1330 UTC 19 January 2019
Temperature: 8.0°C (46°F)
Dewpoint: 4.0°C (39°F) [RH = 76%]
Pressure (altimeter): 29.97 inches Hg (1015.0 mb)
Winds: from the W (280 degrees) at 7 MPH (6 knots; 3.1 m/s)
Visibility: 6 or more miles (10+ km)
Ceiling: at least 12,000 feet AGL
Clouds: scattered clouds at 3100 feet AGL
Weather: no significant weather observed at this time

METAR text: UTTT 191300Z 29008KT 9999 SCT033 08/04 Q1015 R26R/CLRD70 NOSIG
Conditions at: UTTT (TASKENT/YUZNI , UZ) observed 1300 UTC 19 January 2019
Temperature: 8.0°C (46°F)
Dewpoint: 4.0°C (39°F) [RH = 76%]
Pressure (altimeter): 29.97 inches Hg (1015.0 mb)
Winds: from the WNW (290 degrees) at 9 MPH (8 knots; 4.1 m/s)
Visibility: 6 or more miles (10+ km)
Ceiling: at least 12,000 feet AGL
Clouds: scattered clouds at 3300 feet AGL
Weather: no significant weather observed at this time

METAR text: UTTT 191230Z 28008KT 9999 FEW033 09/04 Q1015 R26R/CLRD70 NOSIG
Conditions at: UTTT (TASKENT/YUZNI , UZ) observed 1230 UTC 19 January 2019
Temperature: 9.0°C (48°F)
Dewpoint: 4.0°C (39°F) [RH = 71%]
Pressure (altimeter): 29.97 inches Hg (1015.0 mb)
Winds: from the W (280 degrees) at 9 MPH (8 knots; 4.1 m/s)
Visibility: 6 or more miles (10+ km)
Ceiling: at least 12,000 feet AGL
Clouds: few clouds at 3300 feet AGL
Weather: no significant weather observed at this time

METAR text: UTTT 191200Z 31008KT CAVOK 09/04 Q1014 R08R/CLRD70 NOSIG
Conditions at: UTTT (TASKENT/YUZNI , UZ) observed 1200 UTC 19 January 2019
Temperature: 9.0°C (48°F)
Dewpoint: 4.0°C (39°F) [RH = 71%]
Pressure (altimeter): 29.94 inches Hg (1014.0 mb)
Winds: from the NW (310 degrees) at 9 MPH (8 knots; 4.1 m/s)
Visibility: 6 or more miles (10+ km)
Ceiling: ceiling and visibility are OK
Clouds: unknown
Weather: no significant weather observed at this time

METAR text: UTTT 191130Z 32010KT CAVOK 10/04 Q1014 R08R/CLRD70 NOSIG
Conditions at: UTTT (TASKENT/YUZNI , UZ) observed 1130 UTC 19 January 2019
Temperature: 10.0°C (50°F)
Dewpoint: 4.0°C (39°F) [RH = 66%]
Pressure (altimeter): 29.94 inches Hg (1014.0 mb)
Winds: from the NW (320 degrees) at 12 MPH (10 knots; 5.1 m/s)
Visibility: 6 or more miles (10+ km)
Ceiling: ceiling and visibility are OK
Clouds: unknown
Weather: no significant weather observed at this time

METAR text: UTTT 191100Z 23002KT CAVOK 12/04 Q1014 R08R/CLRD70 NOSIG
Conditions at: UTTT (TASKENT/YUZNI , UZ) observed 1100 UTC 19 January 2019
Temperature: 12.0°C (54°F)
Dewpoint: 4.0°C (39°F) [RH = 58%]
Pressure (altimeter): 29.94 inches Hg (1014.0 mb)
Winds: from the SW (230 degrees) at 2 MPH (2 knots; 1.0 m/s)
Visibility: 6 or more miles (10+ km)
Ceiling: ceiling and visibility are OK
Clouds: unknown
Weather: no significant weather observed at this time

METAR text: UTTT 191030Z VRB02KT CAVOK 12/03 Q1014 R08R/CLRD70 NOSIG
Conditions at: UTTT (TASKENT/YUZNI , UZ) observed 1030 UTC 19 January 2019
Temperature: 12.0°C (54°F)
Dewpoint: 3.0°C (37°F) [RH = 54%]
Pressure (altimeter): 29.94 inches Hg (1014.0 mb)
Winds: variable direction winds at 2 MPH (2 knots; 1.0 m/s)
Visibility: 6 or more miles (10+ km)
Ceiling: ceiling and visibility are OK
Clouds: unknown
Weather: no significant weather observed at this time

METAR text: UTTT 191000Z VRB02KT CAVOK 12/03 Q1015 R08R/CLRD70 NOSIG
Conditions at: UTTT (TASKENT/YUZNI , UZ) observed 1000 UTC 19 January 2019
Temperature: 12.0°C (54°F)
Dewpoint: 3.0°C (37°F) [RH = 54%]
Pressure (altimeter): 29.97 inches Hg (1015.0 mb)
Winds: variable direction winds at 2 MPH (2 knots; 1.0 m/s)
Visibility: 6 or more miles (10+ km)
Ceiling: ceiling and visibility are OK
Clouds: unknown
Weather: no significant weather observed at this time

METAR text: UTTT 190930Z VRB02KT CAVOK 12/03 Q1015 R08R/CLRD70 NOSIG
Conditions at: UTTT (TASKENT/YUZNI , UZ) observed 0930 UTC 19 January 2019
Temperature: 12.0°C (54°F)
Dewpoint: 3.0°C (37°F) [RH = 54%]
Pressure (altimeter): 29.97 inches Hg (1015.0 mb)
Winds: variable direction winds at 2 MPH (2 knots; 1.0 m/s)
Visibility: 6 or more miles (10+ km)
Ceiling: ceiling and visibility are OK
Clouds: unknown
Weather: no significant weather observed at this time

METAR text: UTTT 190900Z 01004KT 340V040 CAVOK 11/03 Q1015 R08R/CLRD70 NOSIG
Conditions at: UTTT (TASKENT/YUZNI , UZ) observed 0900 UTC 19 January 2019
Temperature: 11.0°C (52°F)
Dewpoint: 3.0°C (37°F) [RH = 58%]
Pressure (altimeter): 29.97 inches Hg (1015.0 mb)
Winds: from the N (10 degrees) at 5 MPH (4 knots; 2.1 m/s)
Visibility: 6 or more miles (10+ km)
Ceiling: ceiling and visibility are OK
Clouds: unknown
Weather: no significant weather observed at this time

METAR text: UTTT 190830Z 34004KT 290V040 CAVOK 11/03 Q1016 R08R/CLRD70 NOSIG
Conditions at: UTTT (TASKENT/YUZNI , UZ) observed 0830 UTC 19 January 2019
Temperature: 11.0°C (52°F)
Dewpoint: 3.0°C (37°F) [RH = 58%]
Pressure (altimeter): 30.00 inches Hg (1016.0 mb)
Winds: from the NNW (340 degrees) at 5 MPH (4 knots; 2.1 m/s)
Visibility: 6 or more miles (10+ km)
Ceiling: ceiling and visibility are OK
Clouds: unknown
Weather: no significant weather observed at this time

METAR text: UTTT 190800Z 34004KT 300V040 CAVOK 11/03 Q1016 R08R/CLRD70 NOSIG
Conditions at: UTTT (TASKENT/YUZNI , UZ) observed 0800 UTC 19 January 2019
Temperature: 11.0°C (52°F)
Dewpoint: 3.0°C (37°F) [RH = 58%]
Pressure (altimeter): 30.00 inches Hg (1016.0 mb)
Winds: from the NNW (340 degrees) at 5 MPH (4 knots; 2.1 m/s)
Visibility: 6 or more miles (10+ km)
Ceiling: ceiling and visibility are OK
Clouds: unknown
Weather: no significant weather observed at this time

METAR text: UTTT 190730Z 34008KT 310V040 CAVOK 10/01 Q1017 R08R/CLRD70 NOSIG
Conditions at: UTTT (TASKENT/YUZNI , UZ) observed 0730 UTC 19 January 2019
Temperature: 10.0°C (50°F)
Dewpoint: 1.0°C (34°F) [RH = 53%]
Pressure (altimeter): 30.03 inches Hg (1017.0 mb)
Winds: from the NNW (340 degrees) at 9 MPH (8 knots; 4.1 m/s)
Visibility: 6 or more miles (10+ km)
Ceiling: ceiling and visibility are OK
Clouds: unknown
Weather: no significant weather observed at this time

METAR text: UTTT 190700Z 35006KT CAVOK 10/01 Q1017 R08R/CLRD70 NOSIG
Conditions at: UTTT (TASKENT/YUZNI , UZ) observed 0700 UTC 19 January 2019
Temperature: 10.0°C (50°F)
Dewpoint: 1.0°C (34°F) [RH = 53%]
Pressure (altimeter): 30.03 inches Hg (1017.0 mb)
Winds: from the N (350 degrees) at 7 MPH (6 knots; 3.1 m/s)
Visibility: 6 or more miles (10+ km)
Ceiling: ceiling and visibility are OK
Clouds: unknown
Weather: no significant weather observed at this time

METAR text: UTTT 190630Z 35008KT 310V020 CAVOK 09/01 Q1018 R08R/29//50 NOSIG
Conditions at: UTTT (TASKENT/YUZNI , UZ) observed 0630 UTC 19 January 2019
Temperature: 9.0°C (48°F)
Dewpoint: 1.0°C (34°F) [RH = 57%]
Pressure (altimeter): 30.06 inches Hg (1018.0 mb)
Winds: from the N (350 degrees) at 9 MPH (8 knots; 4.1 m/s)
Visibility: 6 or more miles (10+ km)
Ceiling: ceiling and visibility are OK
Clouds: unknown
Weather: no significant weather observed at this time

METAR text: UTTT 190600Z 33010KT 290V010 CAVOK 08/00 Q1018 R08R/29//50 NOSIG
Conditions at: UTTT (TASKENT/YUZNI , UZ) observed 0600 UTC 19 January 2019
Temperature: 8.0°C (46°F)
Dewpoint: 0.0°C (32°F) [RH = 57%]
Pressure (altimeter): 30.06 inches Hg (1018.0 mb)
Winds: from the NNW (330 degrees) at 12 MPH (10 knots; 5.1 m/s)
Visibility: 6 or more miles (10+ km)
Ceiling: ceiling and visibility are OK
Clouds: unknown
Weather: no significant weather observed at this time

METAR text: UTTT 190530Z 34014KT CAVOK 08/01 Q1018 R08R/29//50 NOSIG
Conditions at: UTTT (TASKENT/YUZNI , UZ) observed 0530 UTC 19 January 2019
Temperature: 8.0°C (46°F)
Dewpoint: 1.0°C (34°F) [RH = 61%]
Pressure (altimeter): 30.06 inches Hg (1018.0 mb)
Winds: from the NNW (340 degrees) at 16 MPH (14 knots; 7.2 m/s)
Visibility: 6 or more miles (10+ km)
Ceiling: ceiling and visibility are OK
Clouds: unknown
Weather: no significant weather observed at this time

METAR text: UTTT 190500Z 31008KT CAVOK 08/03 Q1018 R26R/29//50 NOSIG
Conditions at: UTTT (TASKENT/YUZNI , UZ) observed 0500 UTC 19 January 2019
Temperature: 8.0°C (46°F)
Dewpoint: 3.0°C (37°F) [RH = 71%]
Pressure (altimeter): 30.06 inches Hg (1018.0 mb)
Winds: from the NW (310 degrees) at 9 MPH (8 knots; 4.1 m/s)
Visibility: 6 or more miles (10+ km)
Ceiling: ceiling and visibility are OK
Clouds: unknown
Weather: no significant weather observed at this time

METAR text: UTTT 190430Z 31006KT CAVOK 08/05 Q1018 R26R/29//50 NOSIG
Conditions at: UTTT (TASKENT/YUZNI , UZ) observed 0430 UTC 19 January 2019
Temperature: 8.0°C (46°F)
Dewpoint: 5.0°C (41°F) [RH = 81%]
Pressure (altimeter): 30.06 inches Hg (1018.0 mb)
Winds: from the NW (310 degrees) at 7 MPH (6 knots; 3.1 m/s)
Visibility: 6 or more miles (10+ km)
Ceiling: ceiling and visibility are OK
Clouds: unknown
Weather: no significant weather observed at this time

METAR text: UTTT 190400Z 31004KT CAVOK 08/05 Q1017 R26R/29//50 NOSIG
Conditions at: UTTT (TASKENT/YUZNI , UZ) observed 0400 UTC 19 January 2019
Temperature: 8.0°C (46°F)
Dewpoint: 5.0°C (41°F) [RH = 81%]
Pressure (altimeter): 30.03 inches Hg (1017.0 mb)
Winds: from the NW (310 degrees) at 5 MPH (4 knots; 2.1 m/s)
Visibility: 6 or more miles (10+ km)
Ceiling: ceiling and visibility are OK
Clouds: unknown
Weather: no significant weather observed at this time

METAR text: UTTT 190330Z 34004KT 290V010 CAVOK 08/05 Q1017 R26R/29//50 NOSIG
Conditions at: UTTT (TASKENT/YUZNI , UZ) observed 0330 UTC 19 January 2019
Temperature: 8.0°C (46°F)
Dewpoint: 5.0°C (41°F) [RH = 81%]
Pressure (altimeter): 30.03 inches Hg (1017.0 mb)
Winds: from the NNW (340 degrees) at 5 MPH (4 knots; 2.1 m/s)
Visibility: 6 or more miles (10+ km)
Ceiling: ceiling and visibility are OK
Clouds: unknown
Weather: no significant weather observed at this time

METAR text: UTTT 190300Z 35006KT 300V360 CAVOK 08/05 Q1017 R26R/29//50 NOSIG
Conditions at: UTTT (TASKENT/YUZNI , UZ) observed 0300 UTC 19 January 2019
Temperature: 8.0°C (46°F)
Dewpoint: 5.0°C (41°F) [RH = 81%]
Pressure (altimeter): 30.03 inches Hg (1017.0 mb)
Winds: from the N (350 degrees) at 7 MPH (6 knots; 3.1 m/s)
Visibility: 6 or more miles (10+ km)
Ceiling: ceiling and visibility are OK
Clouds: unknown
Weather: no significant weather observed at this time

METAR text: UTTT 190230Z 34006KT CAVOK 08/05 Q1016 R26R/29//50 NOSIG
Conditions at: UTTT (TASKENT/YUZNI , UZ) observed 0230 UTC 19 January 2019
Temperature: 8.0°C (46°F)
Dewpoint: 5.0°C (41°F) [RH = 81%]
Pressure (altimeter): 30.00 inches Hg (1016.0 mb)
Winds: from the NNW (340 degrees) at 7 MPH (6 knots; 3.1 m/s)
Visibility: 6 or more miles (10+ km)
Ceiling: ceiling and visibility are OK
Clouds: unknown
Weather: no significant weather observed at this time

METAR text: UTTT 190200Z 01002KT CAVOK 08/06 Q1016 R08R/29//50 NOSIG
Conditions at: UTTT (TASKENT/YUZNI , UZ) observed 0200 UTC 19 January 2019
Temperature: 8.0°C (46°F)
Dewpoint: 6.0°C (43°F) [RH = 87%]
Pressure (altimeter): 30.00 inches Hg (1016.0 mb)
Winds: from the N (10 degrees) at 2 MPH (2 knots; 1.0 m/s)
Visibility: 6 or more miles (10+ km)
Ceiling: ceiling and visibility are OK
Clouds: unknown
Weather: no significant weather observed at this time

METAR text: UTTT 190130Z 02004KT 9999 FEW060CB 08/06 Q1016 R08R/29//50 NOSIG
Conditions at: UTTT (TASKENT/YUZNI , UZ) observed 0130 UTC 19 January 2019
Temperature: 8.0°C (46°F)
Dewpoint: 6.0°C (43°F) [RH = 87%]
Pressure (altimeter): 30.00 inches Hg (1016.0 mb)
Winds: from the NNE (20 degrees) at 5 MPH (4 knots; 2.1 m/s)
Visibility: 6 or more miles (10+ km)
Ceiling: at least 12,000 feet AGL
Clouds: few clouds at 6000 feet AGL
Weather: no significant weather observed at this time

METAR text: UTTT 190100Z 04004KT 9999 SCT060CB 08/06 Q1016 R08R/29//50 NOSIG
Conditions at: UTTT (TASKENT/YUZNI , UZ) observed 0100 UTC 19 January 2019
Temperature: 8.0°C (46°F)
Dewpoint: 6.0°C (43°F) [RH = 87%]
Pressure (altimeter): 30.00 inches Hg (1016.0 mb)
Winds: from the NE (40 degrees) at 5 MPH (4 knots; 2.1 m/s)
Visibility: 6 or more miles (10+ km)
Ceiling: at least 12,000 feet AGL
Clouds: scattered clouds at 6000 feet AGL
Weather: no significant weather observed at this time

METAR text: UTTT 190030Z 04004KT 310V070 9999 SCT060CB 08/06 Q1016 R08R/29//50 NOSIG
Conditions at: UTTT (TASKENT/YUZNI , UZ) observed 0030 UTC 19 January 2019
Temperature: 8.0°C (46°F)
Dewpoint: 6.0°C (43°F) [RH = 87%]
Pressure (altimeter): 30.00 inches Hg (1016.0 mb)
Winds: from the NE (40 degrees) at 5 MPH (4 knots; 2.1 m/s)
Visibility: 6 or more miles (10+ km)
Ceiling: at least 12,000 feet AGL
Clouds: scattered clouds at 6000 feet AGL
Weather: no significant weather observed at this time

METAR text: UTTT 190000Z 04002KT 9999 BKN053CB 08/07 Q1016 R08R/29//50 NOSIG
Conditions at: UTTT (TASKENT/YUZNI , UZ) observed 0000 UTC 19 January 2019
Temperature: 8.0°C (46°F)
Dewpoint: 7.0°C (45°F) [RH = 93%]
Pressure (altimeter): 30.00 inches Hg (1016.0 mb)
Winds: from the NE (40 degrees) at 2 MPH (2 knots; 1.0 m/s)
Visibility: 6 or more miles (10+ km)
Ceiling: 5300 feet AGL
Clouds: broken clouds at 5300 feet AGL
Weather: no significant weather observed at this time

METAR text: UTTT 182330Z 08006KT 9999 BKN053CB 07/06 Q1016 R08R/29//50 NOSIG
Conditions at: UTTT (TASKENT/YUZNI , UZ) observed 2330 UTC 18 January 2019
Temperature: 7.0°C (45°F)
Dewpoint: 6.0°C (43°F) [RH = 93%]
Pressure (altimeter): 30.00 inches Hg (1016.0 mb)
Winds: from the E (80 degrees) at 7 MPH (6 knots; 3.1 m/s)
Visibility: 6 or more miles (10+ km)
Ceiling: 5300 feet AGL
Clouds: broken clouds at 5300 feet AGL
Weather: no significant weather observed at this time

METAR text: UTTT 182300Z 08006KT 9999 BKN053CB 07/07 Q1017 R08R/29//50 NOSIG
Conditions at: UTTT (TASKENT/YUZNI , UZ) observed 2300 UTC 18 January 2019
Temperature: 7.0°C (45°F)
Dewpoint: 7.0°C (45°F) [RH = 100%]
Pressure (altimeter): 30.03 inches Hg (1017.0 mb)
Winds: from the E (80 degrees) at 7 MPH (6 knots; 3.1 m/s)
Visibility: 6 or more miles (10+ km)
Ceiling: 5300 feet AGL
Clouds: broken clouds at 5300 feet AGL
Weather: no significant weather observed at this time

METAR text: UTTT 182230Z VRB02KT 4000 BR OVC053CB 08/07 Q1017 R08R/29//50 NOSIG
Conditions at: UTTT (TASKENT/YUZNI , UZ) observed 2230 UTC 18 January 2019
Temperature: 8.0°C (46°F)
Dewpoint: 7.0°C (45°F) [RH = 93%]
Pressure (altimeter): 30.03 inches Hg (1017.0 mb)
Winds: variable direction winds at 2 MPH (2 knots; 1.0 m/s)
Visibility: 2.49 miles (4.01 km)
Ceiling: 5300 feet AGL
Clouds: overcast cloud deck at 5300 feet AGL
Weather: BR  (mist)

METAR text: UTTT 182200Z 10006KT 4000 BR OVC053CB 08/07 Q1017 R08R/29//50 NOSIG
Conditions at: UTTT (TASKENT/YUZNI , UZ) observed 2200 UTC 18 January 2019
Temperature: 8.0°C (46°F)
Dewpoint: 7.0°C (45°F) [RH = 93%]
Pressure (altimeter): 30.03 inches Hg (1017.0 mb)
Winds: from the E (100 degrees) at 7 MPH (6 knots; 3.1 m/s)
Visibility: 2.49 miles (4.01 km)
Ceiling: 5300 feet AGL
Clouds: overcast cloud deck at 5300 feet AGL
Weather: BR  (mist)

METAR text: UTTT 182130Z 09006KT 4000 BR OVC053CB 08/07 Q1017 R08R/29//50 NOSIG
Conditions at: UTTT (TASKENT/YUZNI , UZ) observed 2130 UTC 18 January 2019
Temperature: 8.0°C (46°F)
Dewpoint: 7.0°C (45°F) [RH = 93%]
Pressure (altimeter): 30.03 inches Hg (1017.0 mb)
Winds: from the E (90 degrees) at 7 MPH (6 knots; 3.1 m/s)
Visibility: 2.49 miles (4.01 km)
Ceiling: 5300 feet AGL
Clouds: overcast cloud deck at 5300 feet AGL
Weather: BR  (mist)

METAR text: UTTT 182100Z 07008KT 4000 -SHRA BR OVC053CB 08/07 Q1017 R08R/29//50 NOSIG
Conditions at: UTTT (TASKENT/YUZNI , UZ) observed 2100 UTC 18 January 2019
Temperature: 8.0°C (46°F)
Dewpoint: 7.0°C (45°F) [RH = 93%]
Pressure (altimeter): 30.03 inches Hg (1017.0 mb)
Winds: from the ENE (70 degrees) at 9 MPH (8 knots; 4.1 m/s)
Visibility: 2.49 miles (4.01 km)
Ceiling: 5300 feet AGL
Clouds: overcast cloud deck at 5300 feet AGL
Weather: -SHRA BR  (light rain showers, mist)

METAR text: UTTT 182030Z 11004KT 4000 -SHRA BR OVC048CB 08/08 Q1017 R08R/29//50 NOSIG
Conditions at: UTTT (TASKENT/YUZNI , UZ) observed 2030 UTC 18 January 2019
Temperature: 8.0°C (46°F)
Dewpoint: 8.0°C (46°F) [RH = 100%]
Pressure (altimeter): 30.03 inches Hg (1017.0 mb)
Winds: from the ESE (110 degrees) at 5 MPH (4 knots; 2.1 m/s)
Visibility: 2.49 miles (4.01 km)
Ceiling: 4800 feet AGL
Clouds: overcast cloud deck at 4800 feet AGL
Weather: -SHRA BR  (light rain showers, mist)

METAR text: UTTT 182000Z 09004KT 4000 -SHRA BR OVC048CB 08/07 Q1017 R08R/29//50 NOSIG
Conditions at: UTTT (TASKENT/YUZNI , UZ) observed 2000 UTC 18 January 2019
Temperature: 8.0°C (46°F)
Dewpoint: 7.0°C (45°F) [RH = 93%]
Pressure (altimeter): 30.03 inches Hg (1017.0 mb)
Winds: from the E (90 degrees) at 5 MPH (4 knots; 2.1 m/s)
Visibility: 2.49 miles (4.01 km)
Ceiling: 4800 feet AGL
Clouds: overcast cloud deck at 4800 feet AGL
Weather: -SHRA BR  (light rain showers, mist)

METAR text: UTTT 181930Z VRB02KT 4000 -SHRA BR OVC049CB 08/08 Q1017 R08R/29//50 NOSIG
Conditions at: UTTT (TASKENT/YUZNI , UZ) observed 1930 UTC 18 January 2019
Temperature: 8.0°C (46°F)
Dewpoint: 8.0°C (46°F) [RH = 100%]
Pressure (altimeter): 30.03 inches Hg (1017.0 mb)
Winds: variable direction winds at 2 MPH (2 knots; 1.0 m/s)
Visibility: 2.49 miles (4.01 km)
Ceiling: 4900 feet AGL
Clouds: overcast cloud deck at 4900 feet AGL
Weather: -SHRA BR  (light rain showers, mist)

METAR text: UTTT 181900Z 12006KT 090V160 4000 -SHRA BR OVC052CB 09/08 Q1016 R08R/29//50 NOSIG
Conditions at: UTTT (TASKENT/YUZNI , UZ) observed 1900 UTC 18 January 2019
Temperature: 9.0°C (48°F)
Dewpoint: 8.0°C (46°F) [RH = 93%]
Pressure (altimeter): 30.00 inches Hg (1016.0 mb)
Winds: from the ESE (120 degrees) at 7 MPH (6 knots; 3.1 m/s)
Visibility: 2.49 miles (4.01 km)
Ceiling: 5200 feet AGL
Clouds: overcast cloud deck at 5200 feet AGL
Weather: -SHRA BR  (light rain showers, mist)

METAR text: UTTT 181830Z 12004KT 9999 -SHRA OVC050CB 08/07 Q1016 R08R/29//50 NOSIG
Conditions at: UTTT (TASKENT/YUZNI , UZ) observed 1830 UTC 18 January 2019
Temperature: 8.0°C (46°F)
Dewpoint: 7.0°C (45°F) [RH = 93%]
Pressure (altimeter): 30.00 inches Hg (1016.0 mb)
Winds: from the ESE (120 degrees) at 5 MPH (4 knots; 2.1 m/s)
Visibility: 6 or more miles (10+ km)
Ceiling: 5000 feet AGL
Clouds: overcast cloud deck at 5000 feet AGL
Weather: -SHRA  (light rain showers)

METAR text: UTTT 181800Z 12002KT 9999 -SHRA OVC050CB 08/06 Q1016 R08R/29//50 NOSIG
Conditions at: UTTT (TASKENT/YUZNI , UZ) observed 1800 UTC 18 January 2019
Temperature: 8.0°C (46°F)
Dewpoint: 6.0°C (43°F) [RH = 87%]
Pressure (altimeter): 30.00 inches Hg (1016.0 mb)
Winds: from the ESE (120 degrees) at 2 MPH (2 knots; 1.0 m/s)
Visibility: 6 or more miles (10+ km)
Ceiling: 5000 feet AGL
Clouds: overcast cloud deck at 5000 feet AGL
Weather: -SHRA  (light rain showers)

METAR text: UTTT 181730Z 13004KT 100V170 9999 -SHRA OVC050CB 09/06 Q1016 R08R/29//50 NOSIG
Conditions at: UTTT (TASKENT/YUZNI , UZ) observed 1730 UTC 18 January 2019
Temperature: 9.0°C (48°F)
Dewpoint: 6.0°C (43°F) [RH = 81%]
Pressure (altimeter): 30.00 inches Hg (1016.0 mb)
Winds: from the SE (130 degrees) at 5 MPH (4 knots; 2.1 m/s)
Visibility: 6 or more miles (10+ km)
Ceiling: 5000 feet AGL
Clouds: overcast cloud deck at 5000 feet AGL
Weather: -SHRA  (light rain showers)

METAR text: UTTT 181700Z 11004KT 9999 -SHRA OVC051CB 08/05 Q1015 R08R/29//50 NOSIG
Conditions at: UTTT (TASKENT/YUZNI , UZ) observed 1700 UTC 18 January 2019
Temperature: 8.0°C (46°F)
Dewpoint: 5.0°C (41°F) [RH = 81%]
Pressure (altimeter): 29.97 inches Hg (1015.0 mb)
Winds: from the ESE (110 degrees) at 5 MPH (4 knots; 2.1 m/s)
Visibility: 6 or more miles (10+ km)
Ceiling: 5100 feet AGL
Clouds: overcast cloud deck at 5100 feet AGL
Weather: -SHRA  (light rain showers)

METAR text: UTTT 181630Z 23002KT 9999 -SHRA BKN053CB 08/05 Q1015 R08R/19//60 NOSIG
Conditions at: UTTT (TASKENT/YUZNI , UZ) observed 1630 UTC 18 January 2019
Temperature: 8.0°C (46°F)
Dewpoint: 5.0°C (41°F) [RH = 81%]
Pressure (altimeter): 29.97 inches Hg (1015.0 mb)
Winds: from the SW (230 degrees) at 2 MPH (2 knots; 1.0 m/s)
Visibility: 6 or more miles (10+ km)
Ceiling: 5300 feet AGL
Clouds: broken clouds at 5300 feet AGL
Weather: -SHRA  (light rain showers)

METAR text: UTTT 181600Z 12006KT 090V150 9999 BKN053CB 09/05 Q1014 R08R/19//60 NOSIG
Conditions at: UTTT (TASKENT/YUZNI , UZ) observed 1600 UTC 18 January 2019
Temperature: 9.0°C (48°F)
Dewpoint: 5.0°C (41°F) [RH = 76%]
Pressure (altimeter): 29.94 inches Hg (1014.0 mb)
Winds: from the ESE (120 degrees) at 7 MPH (6 knots; 3.1 m/s)
Visibility: 6 or more miles (10+ km)
Ceiling: 5300 feet AGL
Clouds: broken clouds at 5300 feet AGL
Weather: no significant weather observed at this time

METAR text: UTTT 181530Z 07004KT 9999 BKN053CB 09/04 Q1013 R08R/29//50 NOSIG
Conditions at: UTTT (TASKENT/YUZNI , UZ) observed 1530 UTC 18 January 2019
Temperature: 9.0°C (48°F)
Dewpoint: 4.0°C (39°F) [RH = 71%]
Pressure (altimeter): 29.91 inches Hg (1013.0 mb)
Winds: from the ENE (70 degrees) at 5 MPH (4 knots; 2.1 m/s)
Visibility: 6 or more miles (10+ km)
Ceiling: 5300 feet AGL
Clouds: broken clouds at 5300 feet AGL
Weather: no significant weather observed at this time

METAR text: UTTT 181500Z VRB02KT 9999 SCT066CB 09/02 Q1013 R08R/29//50 NOSIG
Conditions at: UTTT (TASKENT/YUZNI , UZ) observed 1500 UTC 18 January 2019
Temperature: 9.0°C (48°F)
Dewpoint: 2.0°C (36°F) [RH = 61%]
Pressure (altimeter): 29.91 inches Hg (1013.0 mb)
Winds: variable direction winds at 2 MPH (2 knots; 1.0 m/s)
Visibility: 6 or more miles (10+ km)
Ceiling: at least 12,000 feet AGL
Clouds: scattered clouds at 6600 feet AGL
Weather: no significant weather observed at this time

METAR text: UTTT 181430Z 11004KT 090V150 9999 SCT066CB 10/02 Q1013 R08R/29//50 NOSIG
Conditions at: UTTT (TASKENT/YUZNI , UZ) observed 1430 UTC 18 January 2019
Temperature: 10.0°C (50°F)
Dewpoint: 2.0°C (36°F) [RH = 57%]
Pressure (altimeter): 29.91 inches Hg (1013.0 mb)
Winds: from the ESE (110 degrees) at 5 MPH (4 knots; 2.1 m/s)
Visibility: 6 or more miles (10+ km)
Ceiling: at least 12,000 feet AGL
Clouds: scattered clouds at 6600 feet AGL
Weather: no significant weather observed at this time

METAR text: UTTT 181400Z 09006KT 9999 SCT066CB 09/02 Q1012 R08R/29//50 NOSIG
Conditions at: UTTT (TASKENT/YUZNI , UZ) observed 1400 UTC 18 January 2019
Temperature: 9.0°C (48°F)
Dewpoint: 2.0°C (36°F) [RH = 61%]
Pressure (altimeter): 29.88 inches Hg (1012.0 mb)
Winds: from the E (90 degrees) at 7 MPH (6 knots; 3.1 m/s)
Visibility: 6 or more miles (10+ km)
Ceiling: at least 12,000 feet AGL
Clouds: scattered clouds at 6600 feet AGL
Weather: no significant weather observed at this time

METAR text: UTTT 181330Z 07008KT 9999 -SHRA BKN066CB 08/03 Q1012 R08R/29//50 NOSIG
Conditions at: UTTT (TASKENT/YUZNI , UZ) observed 1330 UTC 18 January 2019
Temperature: 8.0°C (46°F)
Dewpoint: 3.0°C (37°F) [RH = 71%]
Pressure (altimeter): 29.88 inches Hg (1012.0 mb)
Winds: from the ENE (70 degrees) at 9 MPH (8 knots; 4.1 m/s)
Visibility: 6 or more miles (10+ km)
Ceiling: 6600 feet AGL
Clouds: broken clouds at 6600 feet AGL
Weather: -SHRA  (light rain showers)

METAR text: UTTT 181300Z VRB02KT 9999 -SHRA BKN066CB 09/02 Q1012 R08R/29//50 NOSIG
Conditions at: UTTT (TASKENT/YUZNI , UZ) observed 1300 UTC 18 January 2019
Temperature: 9.0°C (48°F)
Dewpoint: 2.0°C (36°F) [RH = 61%]
Pressure (altimeter): 29.88 inches Hg (1012.0 mb)
Winds: variable direction winds at 2 MPH (2 knots; 1.0 m/s)
Visibility: 6 or more miles (10+ km)
Ceiling: 6600 feet AGL
Clouds: broken clouds at 6600 feet AGL
Weather: -SHRA  (light rain showers)

METAR text: UTTT 181230Z 19012KT 160V230 9999 BKN066CB 09/01 Q1011 WS R08R R08R/29//50 NOSIG
Conditions at: UTTT (TASKENT/YUZNI , UZ) observed 1230 UTC 18 January 2019
Temperature: 9.0°C (48°F)
Dewpoint: 1.0°C (34°F) [RH = 57%]
Pressure (altimeter): 29.85 inches Hg (1011.0 mb)
Winds: from the S (190 degrees) at 14 MPH (12 knots; 6.2 m/s)
Visibility: 6 or more miles (10+ km)
Ceiling: 6600 feet AGL
Clouds: broken clouds at 6600 feet AGL
Weather: no significant weather observed at this time

METAR text: UTTT 181200Z 07016G26KT 9999 BKN066CB 10/00 Q1010 R08R/29//50 NOSIG
Conditions at: UTTT (TASKENT/YUZNI , UZ) observed 1200 UTC 18 January 2019
Temperature: 10.0°C (50°F)
Dewpoint: 0.0°C (32°F) [RH = 50%]
Pressure (altimeter): 29.82 inches Hg (1010.0 mb)
Winds: from the ENE (70 degrees) at 18 MPH (16 knots; 8.2 m/s)
gusting to 30 MPH (26 knots; 13.4 m/s)
Visibility: 6 or more miles (10+ km)
Ceiling: 6600 feet AGL
Clouds: broken clouds at 6600 feet AGL
Weather: no significant weather observed at this time

METAR text: UTTT 181130Z 05012KT 9999 BKN066CB 10/M00 Q1009 R08R/29//50 NOSIG
Conditions at: UTTT (TASKENT/YUZNI , UZ) observed 1130 UTC 18 January 2019
Temperature: 10.0°C (50°F)
Dewpoint: 0.0°C (32°F) [RH = 50%]
Pressure (altimeter): 29.79 inches Hg (1009.0 mb)
Winds: from the NE (50 degrees) at 14 MPH (12 knots; 6.2 m/s)
Visibility: 6 or more miles (10+ km)
Ceiling: 6600 feet AGL
Clouds: broken clouds at 6600 feet AGL
Weather: no significant weather observed at this time

METAR text: UTTT 181100Z 06010KT 7000 BKN066CB 10/M00 Q1009 R08R/29//50 NOSIG
Conditions at: UTTT (TASKENT/YUZNI , UZ) observed 1100 UTC 18 January 2019
Temperature: 10.0°C (50°F)
Dewpoint: 0.0°C (32°F) [RH = 50%]
Pressure (altimeter): 29.79 inches Hg (1009.0 mb)
Winds: from the ENE (60 degrees) at 12 MPH (10 knots; 5.1 m/s)
Visibility: 4 miles ( 7 km)
Ceiling: 6600 feet AGL
Clouds: broken clouds at 6600 feet AGL
Weather: no significant weather observed at this time

METAR text: UTTT 181030Z 06012KT 7000 -SHRA OVC045CB 08/01 Q1009 R08R/29//50 NOSIG
Conditions at: UTTT (TASKENT/YUZNI , UZ) observed 1030 UTC 18 January 2019
Temperature: 8.0°C (46°F)
Dewpoint: 1.0°C (34°F) [RH = 61%]
Pressure (altimeter): 29.79 inches Hg (1009.0 mb)
Winds: from the ENE (60 degrees) at 14 MPH (12 knots; 6.2 m/s)
Visibility: 4 miles ( 7 km)
Ceiling: 4500 feet AGL
Clouds: overcast cloud deck at 4500 feet AGL
Weather: -SHRA  (light rain showers)

METAR text: UTTT 181000Z 04004KT 340V100 7000 -SHRA OVC043CB 08/00 Q1010 R08R/CLRD70 NOSIG
Conditions at: UTTT (TASKENT/YUZNI , UZ) observed 1000 UTC 18 January 2019
Temperature: 8.0°C (46°F)
Dewpoint: 0.0°C (32°F) [RH = 57%]
Pressure (altimeter): 29.82 inches Hg (1010.0 mb)
Winds: from the NE (40 degrees) at 5 MPH (4 knots; 2.1 m/s)
Visibility: 4 miles ( 7 km)
Ceiling: 4300 feet AGL
Clouds: overcast cloud deck at 4300 feet AGL
Weather: -SHRA  (light rain showers)

METAR text: UTTT 180930Z 07014KT 7000 BKN066CB 08/01 Q1008 R08R/CLRD70 NOSIG
Conditions at: UTTT (TASKENT/YUZNI , UZ) observed 0930 UTC 18 January 2019
Temperature: 8.0°C (46°F)
Dewpoint: 1.0°C (34°F) [RH = 61%]
Pressure (altimeter): 29.76 inches Hg (1008.0 mb)
Winds: from the ENE (70 degrees) at 16 MPH (14 knots; 7.2 m/s)
Visibility: 4 miles ( 7 km)
Ceiling: 6600 feet AGL
Clouds: broken clouds at 6600 feet AGL
Weather: no significant weather observed at this time

METAR text: UTTT 180900Z 08012KT 7000 BKN066CB 08/M01 Q1009 R08R/CLRD70 NOSIG
Conditions at: UTTT (TASKENT/YUZNI , UZ) observed 0900 UTC 18 January 2019
Temperature: 8.0°C (46°F)
Dewpoint: -1.0°C (30°F) [RH = 53%]
Pressure (altimeter): 29.79 inches Hg (1009.0 mb)
Winds: from the E (80 degrees) at 14 MPH (12 knots; 6.2 m/s)
Visibility: 4 miles ( 7 km)
Ceiling: 6600 feet AGL
Clouds: broken clouds at 6600 feet AGL
Weather: no significant weather observed at this time

METAR text: UTTT 180830Z VRB02KT 7000 FEW066CB 08/M01 Q1009 R26R/CLRD70 NOSIG
Conditions at: UTTT (TASKENT/YUZNI , UZ) observed 0830 UTC 18 January 2019
Temperature: 8.0°C (46°F)
Dewpoint: -1.0°C (30°F) [RH = 53%]
Pressure (altimeter): 29.79 inches Hg (1009.0 mb)
Winds: variable direction winds at 2 MPH (2 knots; 1.0 m/s)
Visibility: 4 miles ( 7 km)
Ceiling: at least 12,000 feet AGL
Clouds: few clouds at 6600 feet AGL
Weather: no significant weather observed at this time

METAR text: UTTT 180800Z 25008KT 7000 FEW066CB 08/M01 Q1009 R26R/CLRD70 NOSIG
Conditions at: UTTT (TASKENT/YUZNI , UZ) observed 0800 UTC 18 January 2019
Temperature: 8.0°C (46°F)
Dewpoint: -1.0°C (30°F) [RH = 53%]
Pressure (altimeter): 29.79 inches Hg (1009.0 mb)
Winds: from the WSW (250 degrees) at 9 MPH (8 knots; 4.1 m/s)
Visibility: 4 miles ( 7 km)
Ceiling: at least 12,000 feet AGL
Clouds: few clouds at 6600 feet AGL
Weather: no significant weather observed at this time

METAR text: UTTT 180730Z 25010KT 7000 FEW066CB 08/M02 Q1009 R26R/CLRD70 NOSIG
Conditions at: UTTT (TASKENT/YUZNI , UZ) observed 0730 UTC 18 January 2019
Temperature: 8.0°C (46°F)
Dewpoint: -2.0°C (28°F) [RH = 49%]
Pressure (altimeter): 29.79 inches Hg (1009.0 mb)
Winds: from the WSW (250 degrees) at 12 MPH (10 knots; 5.1 m/s)
Visibility: 4 miles ( 7 km)
Ceiling: at least 12,000 feet AGL
Clouds: few clouds at 6600 feet AGL
Weather: no significant weather observed at this time

METAR text: UTTT 180700Z 25008KT 7000 FEW066CB 10/M04 Q1008 R26R/CLRD70 NOSIG
Conditions at: UTTT (TASKENT/YUZNI , UZ) observed 0700 UTC 18 January 2019
Temperature: 10.0°C (50°F)
Dewpoint: -4.0°C (25°F) [RH = 37%]
Pressure (altimeter): 29.76 inches Hg (1008.0 mb)
Winds: from the WSW (250 degrees) at 9 MPH (8 knots; 4.1 m/s)
Visibility: 4 miles ( 7 km)
Ceiling: at least 12,000 feet AGL
Clouds: few clouds at 6600 feet AGL
Weather: no significant weather observed at this time

METAR text: UTTT 180630Z 25010KT 210V270 7000 FEW066CB 09/M04 Q1008 R08R/CLRD70 NOSIG
Conditions at: UTTT (TASKENT/YUZNI , UZ) observed 0630 UTC 18 January 2019
Temperature: 9.0°C (48°F)
Dewpoint: -4.0°C (25°F) [RH = 40%]
Pressure (altimeter): 29.76 inches Hg (1008.0 mb)
Winds: from the WSW (250 degrees) at 12 MPH (10 knots; 5.1 m/s)
Visibility: 4 miles ( 7 km)
Ceiling: at least 12,000 feet AGL
Clouds: few clouds at 6600 feet AGL
Weather: no significant weather observed at this time

METAR text: UTTT 180600Z 26004KT 7000 FEW066CB 10/M01 Q1007 R08R/CLRD70 NOSIG
Conditions at: UTTT (TASKENT/YUZNI , UZ) observed 0600 UTC 18 January 2019
Temperature: 10.0°C (50°F)
Dewpoint: -1.0°C (30°F) [RH = 46%]
Pressure (altimeter): 29.73 inches Hg (1007.0 mb)
Winds: from the W (260 degrees) at 5 MPH (4 knots; 2.1 m/s)
Visibility: 4 miles ( 7 km)
Ceiling: at least 12,000 feet AGL
Clouds: few clouds at 6600 feet AGL
Weather: no significant weather observed at this time

METAR text: UTTT 180530Z 27004KT 7000 NSC 10/M02 Q1007 R08R/CLRD70 NOSIG
Conditions at: UTTT (TASKENT/YUZNI , UZ) observed 0530 UTC 18 January 2019
Temperature: 10.0°C (50°F)
Dewpoint: -2.0°C (28°F) [RH = 43%]
Pressure (altimeter): 29.73 inches Hg (1007.0 mb)
Winds: from the W (270 degrees) at 5 MPH (4 knots; 2.1 m/s)
Visibility: 4 miles ( 7 km)
Ceiling: at least 12,000 feet AGL
Clouds: sky clear below 12,000 feet AGL
Weather: no significant weather observed at this time

METAR text: UTTT 180500Z 24006KT CAVOK 10/M06 Q1007 R08R/CLRD70 NOSIG
Conditions at: UTTT (TASKENT/YUZNI , UZ) observed 0500 UTC 18 January 2019
Temperature: 10.0°C (50°F)
Dewpoint: -6.0°C (21°F) [RH = 32%]
Pressure (altimeter): 29.73 inches Hg (1007.0 mb)
Winds: from the WSW (240 degrees) at 7 MPH (6 knots; 3.1 m/s)
Visibility: 6 or more miles (10+ km)
Ceiling: ceiling and visibility are OK
Clouds: unknown
Weather: no significant weather observed at this time

METAR text: UTTT 180430Z 03004KT 320V090 CAVOK 10/M10 Q1006 R08R/CLRD70 NOSIG
Conditions at: UTTT (TASKENT/YUZNI , UZ) observed 0430 UTC 18 January 2019
Temperature: 10.0°C (50°F)
Dewpoint: -10.0°C (14°F) [RH = 23%]
Pressure (altimeter): 29.70 inches Hg (1006.0 mb)
Winds: from the NNE (30 degrees) at 5 MPH (4 knots; 2.1 m/s)
Visibility: 6 or more miles (10+ km)
Ceiling: ceiling and visibility are OK
Clouds: unknown
Weather: no significant weather observed at this time

METAR text: UTTT 180400Z 06006KT CAVOK 09/M11 Q1006 R08R/CLRD70 NOSIG
Conditions at: UTTT (TASKENT/YUZNI , UZ) observed 0400 UTC 18 January 2019
Temperature: 9.0°C (48°F)
Dewpoint: -11.0°C (12°F) [RH = 23%]
Pressure (altimeter): 29.70 inches Hg (1006.0 mb)
Winds: from the ENE (60 degrees) at 7 MPH (6 knots; 3.1 m/s)
Visibility: 6 or more miles (10+ km)
Ceiling: ceiling and visibility are OK
Clouds: unknown
Weather: no significant weather observed at this time

METAR text: UTTT 180330Z 04010KT CAVOK 09/M11 Q1006 R08R/CLRD70 NOSIG
Conditions at: UTTT (TASKENT/YUZNI , UZ) observed 0330 UTC 18 January 2019
Temperature: 9.0°C (48°F)
Dewpoint: -11.0°C (12°F) [RH = 23%]
Pressure (altimeter): 29.70 inches Hg (1006.0 mb)
Winds: from the NE (40 degrees) at 12 MPH (10 knots; 5.1 m/s)
Visibility: 6 or more miles (10+ km)
Ceiling: ceiling and visibility are OK
Clouds: unknown
Weather: no significant weather observed at this time

Forecast for: UTTT (TASKENT/YUZNI , UZ)
Text: TAF UTTT 191100Z 1912/2012 22010KT 7000 FEW050CB SCT100
Forecast period: 1200 UTC 19 January 2019 to 1200 UTC 20 January 2019
Forecast type: FROM: standard forecast or significant change
Winds: from the SW (220 degrees) at 12 MPH (10 knots; 5.1 m/s)
Visibility: 4 miles (7 km)
Ceiling: at least 12,000 feet AGL
Clouds: few clouds at 5000 feet AGL
scattered clouds at 10000 feet AGL
Weather: no significant weather forecast for this period
Text: TEMPO 1915/1920 27015G25KT 3000 -SHRA BR SCT050CB BKN100
Forecast period: 1500 to 2000 UTC 19 January 2019
Forecast type: TEMPORARY: The following changes expected for less than half the time period
Winds: from the W (270 degrees) at 17 MPH (15 knots; 7.7 m/s)
gusting to 29 MPH (25 knots; 12.9 m/s)
Visibility: 1.86 miles (2.99 km)
Ceiling: 10000 feet AGL
Clouds: scattered clouds at 5000 feet AGL
broken clouds at 10000 feet AGL
Weather: -SHRA BR  (light rain showers, mist)
Text: PROB30
Forecast period: 1500 to 2000 UTC 19 January 2019
Forecast type: TEMPORARY: The following changes expected for less than half the time period
Visibility: missing
Ceiling: 4000 feet AGL
Clouds: broken clouds at 4000 feet AGL
Weather: TS  (thunderstorm)
Text: TEMPO 1915/1920 TS BKN040CB
Forecast period: 2000 UTC 19 January 2019 to 0600 UTC 20 January 2019
Forecast type: TEMPORARY: The following changes expected for less than half the time period
Visibility: 1.30 miles (2.09 km)
Ceiling: 3000 feet AGL
Clouds: scattered clouds at 1000 feet AGL
broken clouds at 3000 feet AGL
overcast cloud deck at 10000 feet AGL
Weather: -SHRA BR  (light rain showers, mist)